createdAt,value
2023-05-15T00:00:28.000Z,8
2023-05-15T00:02:25.012Z,8
2023-05-15T00:04:24.822Z,8
2023-05-15T00:06:25.270Z,10
2023-05-15T00:08:24.851Z,10
2023-05-15T00:10:25.630Z,10
2023-05-15T00:14:25.408Z,10
2023-05-15T00:16:25.207Z,10
2023-05-15T00:18:24.762Z,7
2023-05-15T00:20:25.173Z,7
2023-05-15T00:22:24.901Z,7
2023-05-15T00:24:25.450Z,10
2023-05-15T00:26:24.986Z,10
2023-05-15T00:28:24.454Z,10
2023-05-15T00:30:25.116Z,10
2023-05-15T00:32:24.679Z,10
2023-05-15T00:34:25.024Z,10
2023-05-15T00:36:24.610Z,8
2023-05-15T00:38:25.198Z,8
2023-05-15T00:40:25.034Z,8
2023-05-15T00:42:25.430Z,7
2023-05-15T00:44:25.243Z,7
2023-05-15T00:46:24.807Z,7
2023-05-15T00:48:25.539Z,8
2023-05-15T00:50:25.337Z,8
2023-05-15T00:52:24.970Z,8
2023-05-15T00:54:25.637Z,7
2023-05-15T00:56:24.711Z,7
2023-05-15T00:58:25.419Z,7
2023-05-15T01:00:31.420Z,8
2023-05-15T01:02:24.958Z,8
2023-05-15T01:04:25.419Z,8
2023-05-15T01:06:24.742Z,8
2023-05-15T01:08:25.360Z,8
2023-05-15T01:10:25.085Z,8
2023-05-15T01:12:25.476Z,7
2023-05-15T01:14:25.042Z,7
2023-05-15T01:16:24.790Z,7
2023-05-15T01:18:25.828Z,8
2023-05-15T01:20:25.172Z,8
2023-05-15T01:22:24.693Z,8
2023-05-15T01:24:25.192Z,8
2023-05-15T01:26:24.624Z,8
2023-05-15T01:28:25.384Z,8
2023-05-15T01:30:25.009Z,8
2023-05-15T01:32:24.861Z,8
2023-05-15T01:34:25.168Z,8
2023-05-15T01:36:24.779Z,5
2023-05-15T01:38:25.401Z,5
2023-05-15T01:40:25.136Z,5
2023-05-15T01:42:24.623Z,7
2023-05-15T01:44:25.075Z,7
2023-05-15T01:46:24.844Z,7
2023-05-15T01:48:25.371Z,7
2023-05-15T01:50:25.267Z,7
2023-05-15T01:52:24.503Z,7
2023-05-15T01:54:25.131Z,8
2023-05-15T01:56:24.607Z,8
2023-05-15T01:58:25.102Z,8
2023-05-15T02:00:28.765Z,7
2023-05-15T02:02:25.383Z,7
2023-05-15T02:04:25.169Z,7
2023-05-15T02:06:24.565Z,5
2023-05-15T02:08:24.509Z,5
2023-05-15T02:10:25.376Z,5
2023-05-15T02:12:24.706Z,7
2023-05-15T02:14:25.444Z,7
2023-05-15T02:16:25.262Z,7
2023-05-15T02:18:24.736Z,8
2023-05-15T02:20:25.262Z,8
2023-05-15T02:22:24.744Z,8
2023-05-15T02:24:24.439Z,8
2023-05-15T02:26:25.043Z,8
2023-05-15T02:28:24.672Z,8
2023-05-15T02:30:25.332Z,8
2023-05-15T02:32:25.297Z,8
2023-05-15T02:34:24.516Z,8
2023-05-15T02:36:24.903Z,8
2023-05-15T02:38:24.526Z,8
2023-05-15T02:40:25.437Z,8
2023-05-15T02:42:24.829Z,7
2023-05-15T02:44:25.428Z,7
2023-05-15T02:46:25.415Z,7
2023-05-15T02:48:25.554Z,7
2023-05-15T02:50:25.178Z,7
2023-05-15T02:52:24.752Z,7
2023-05-15T02:54:25.161Z,7
2023-05-15T02:56:24.813Z,7
2023-05-15T02:58:25.241Z,7
2023-05-15T03:00:28.717Z,7
2023-05-15T03:02:25.285Z,7
2023-05-15T03:04:25.174Z,7
2023-05-15T03:06:24.740Z,7
2023-05-15T03:08:25.099Z,7
2023-05-15T03:10:24.973Z,7
2023-05-15T03:12:24.563Z,10
2023-05-15T03:14:25.050Z,10
2023-05-15T03:16:24.646Z,10
2023-05-15T03:18:27.299Z,9
2023-05-15T03:20:24.696Z,9
2023-05-15T03:22:25.266Z,9
2023-05-15T03:24:24.621Z,6
2023-05-15T03:26:24.463Z,6
2023-05-15T03:28:25.042Z,6
2023-05-15T03:30:24.896Z,9
2023-05-15T03:32:25.454Z,9
2023-05-15T03:34:25.006Z,9
2023-05-15T03:36:24.437Z,6
2023-05-15T03:38:25.060Z,6
2023-05-15T03:40:24.994Z,6
2023-05-15T03:42:25.254Z,7
2023-05-15T03:44:24.792Z,7
2023-05-15T03:46:25.568Z,7
2023-05-15T03:48:25.032Z,5
2023-05-15T03:50:25.520Z,5
2023-05-15T03:52:25.071Z,5
2023-05-15T03:54:25.442Z,7
2023-05-15T03:56:25.051Z,7
2023-05-15T03:58:24.561Z,7
2023-05-15T04:00:30.774Z,8
2023-05-15T04:02:28.785Z,8
2023-05-15T04:04:24.840Z,8
2023-05-15T04:06:25.189Z,6
2023-05-15T04:08:24.804Z,6
2023-05-15T04:10:25.924Z,6
2023-05-15T04:12:25.151Z,6
2023-05-15T04:14:24.686Z,6
2023-05-15T04:16:25.455Z,6
2023-05-15T04:18:24.975Z,7
2023-05-15T04:20:24.689Z,7
2023-05-15T04:22:25.273Z,7
2023-05-15T04:24:24.758Z,10
2023-05-15T04:26:25.338Z,10
2023-05-15T04:28:24.959Z,10
2023-05-15T04:32:25.183Z,9
2023-05-15T04:34:24.498Z,9
2023-05-15T04:36:25.280Z,7
2023-05-15T04:38:24.821Z,7
2023-05-15T04:40:24.740Z,7
2023-05-15T04:42:25.184Z,7
2023-05-15T04:44:24.608Z,7
2023-05-15T04:46:25.531Z,7
2023-05-15T04:48:25.082Z,9
2023-05-15T04:50:24.965Z,9
2023-05-15T04:52:25.172Z,9
2023-05-15T04:54:24.782Z,6
2023-05-15T04:56:25.234Z,6
2023-05-15T04:58:24.961Z,6
2023-05-15T05:00:24.604Z,6
2023-05-15T05:02:25.432Z,6
2023-05-15T05:04:24.962Z,6
2023-05-15T05:06:25.328Z,6
2023-05-15T05:08:24.949Z,6
2023-05-15T05:10:24.850Z,6
2023-05-15T05:12:26.016Z,6
2023-05-15T05:14:24.766Z,6
2023-05-15T05:16:25.643Z,6
2023-05-15T05:18:25.085Z,6
2023-05-15T05:20:25.826Z,7
2023-05-15T05:22:25.227Z,7
2023-05-15T05:24:24.614Z,7
2023-05-15T05:26:27.716Z,9
2023-05-15T05:28:24.409Z,9
2023-05-15T05:30:25.226Z,9
2023-05-15T05:32:24.843Z,7
2023-05-15T05:34:25.331Z,7
2023-05-15T05:36:24.822Z,7
2023-05-15T05:38:25.156Z,6
2023-05-15T05:40:25.035Z,6
2023-05-15T05:42:25.313Z,6
2023-05-15T05:44:24.964Z,6
2023-05-15T05:46:24.752Z,6
2023-05-15T05:48:25.492Z,6
2023-05-15T05:50:25.037Z,7
2023-05-15T05:52:25.339Z,7
2023-05-15T05:54:25.029Z,7
2023-05-15T05:56:25.274Z,7
2023-05-15T05:58:37.725Z,7
2023-05-15T06:00:28.377Z,7
2023-05-15T06:02:24.654Z,7
2023-05-15T06:04:27.812Z,7
2023-05-15T06:06:24.873Z,7
2023-05-15T06:08:24.577Z,7
2023-05-15T06:10:25.554Z,7
2023-05-15T06:12:24.906Z,7
2023-05-15T06:14:25.286Z,7
2023-05-15T06:16:24.762Z,7
2023-05-15T06:18:25.643Z,7
2023-05-15T06:20:25.260Z,10
2023-05-15T06:22:24.595Z,10
2023-05-15T06:24:25.168Z,10
2023-05-15T06:26:24.729Z,9
2023-05-15T06:28:25.444Z,9
2023-05-15T06:30:25.466Z,9
2023-05-15T06:32:24.532Z,7
2023-05-15T06:34:25.081Z,7
2023-05-15T06:36:24.535Z,7
2023-05-15T06:38:25.058Z,7
2023-05-15T06:40:25.773Z,7
2023-05-15T06:42:25.140Z,7
2023-05-15T06:44:25.811Z,8
2023-05-15T06:46:25.098Z,8
2023-05-15T06:48:25.192Z,8
2023-05-15T06:50:25.399Z,7
2023-05-15T06:52:24.721Z,7
2023-05-15T06:56:24.421Z,4
2023-05-15T06:58:25.072Z,4
2023-05-15T07:00:27.998Z,4
2023-05-15T07:02:25.823Z,10
2023-05-15T07:04:24.891Z,10
2023-05-15T07:06:25.262Z,10
2023-05-15T07:08:24.838Z,7
2023-05-15T07:10:25.920Z,7
2023-05-15T07:12:24.837Z,7
2023-05-15T07:14:25.231Z,7
2023-05-15T07:16:24.889Z,7
2023-05-15T07:18:26.041Z,7
2023-05-15T07:20:28.207Z,9
2023-05-15T07:22:25.393Z,9
2023-05-15T07:26:50.346Z,10
2023-05-15T07:28:24.433Z,10
2023-05-15T07:30:25.646Z,10
2023-05-15T07:32:24.890Z,10
2023-05-15T07:34:25.417Z,10
2023-05-15T07:36:25.040Z,10
2023-05-15T07:38:24.837Z,7
2023-05-15T07:40:25.372Z,7
2023-05-15T07:42:24.763Z,7
2023-05-15T07:44:25.307Z,9
2023-05-15T07:46:25.095Z,9
2023-05-15T07:48:25.367Z,9
2023-05-15T07:50:25.415Z,6
2023-05-15T07:52:24.940Z,6
2023-05-15T07:54:24.430Z,6
2023-05-15T07:56:25.012Z,9
2023-05-15T07:58:24.613Z,9
2023-05-15T08:00:28.798Z,9
2023-05-15T08:02:25.024Z,7
2023-05-15T08:04:25.239Z,7
2023-05-15T08:06:25.367Z,7
2023-05-15T08:08:25.020Z,9
2023-05-15T08:10:25.599Z,9
2023-05-15T08:12:25.030Z,9
2023-05-15T08:14:25.592Z,9
2023-05-15T08:16:25.489Z,9
2023-05-15T08:18:25.083Z,9
2023-05-15T08:20:24.800Z,9
2023-05-15T08:22:25.367Z,9
2023-05-15T08:24:24.767Z,9
2023-05-15T08:26:25.278Z,10
2023-05-15T08:28:24.897Z,10
2023-05-15T08:30:24.709Z,10
2023-05-15T08:32:25.277Z,10
2023-05-15T08:34:24.833Z,10
2023-05-15T08:36:24.559Z,10
2023-05-15T08:38:24.996Z,10
2023-05-15T08:40:38.414Z,10
2023-05-15T08:44:24.637Z,12
2023-05-15T08:46:25.233Z,12
2023-05-15T08:48:25.166Z,12
2023-05-15T08:50:24.627Z,7
2023-05-15T08:52:25.146Z,7
2023-05-15T08:54:24.689Z,7
2023-05-15T08:56:25.246Z,7
2023-05-15T08:58:24.876Z,7
2023-05-15T09:00:31.795Z,7
2023-05-15T09:02:25.581Z,9
2023-05-15T09:04:25.204Z,9
2023-05-15T09:06:24.624Z,9
2023-05-15T09:08:25.082Z,10
2023-05-15T09:10:24.951Z,10
2023-05-15T09:12:25.255Z,10
2023-05-15T09:14:24.746Z,12
2023-05-15T09:16:25.556Z,12
2023-05-15T09:18:25.021Z,12
2023-05-15T09:20:24.685Z,9
2023-05-15T09:22:25.218Z,9
2023-05-15T09:24:24.922Z,9
2023-05-15T09:26:24.518Z,12
2023-05-15T09:28:25.093Z,12
2023-05-15T09:30:24.682Z,12
2023-05-15T09:32:25.595Z,9
2023-05-15T09:34:24.719Z,9
2023-05-15T09:36:25.204Z,9
2023-05-15T09:38:24.753Z,10
2023-05-15T09:40:25.516Z,10
2023-05-15T09:42:24.918Z,10
2023-05-15T09:44:24.415Z,12
2023-05-15T09:46:25.357Z,12
2023-05-15T09:48:24.967Z,12
2023-05-15T09:50:25.264Z,9
2023-05-15T09:52:24.951Z,9
2023-05-15T09:54:25.682Z,9
2023-05-15T09:56:24.795Z,7
2023-05-15T09:58:25.382Z,7
2023-05-15T10:00:29.885Z,7
2023-05-15T10:02:24.672Z,13
2023-05-15T10:04:25.034Z,13
2023-05-15T10:06:24.823Z,13
2023-05-15T10:08:25.146Z,8
2023-05-15T10:10:25.306Z,8
2023-05-15T10:12:25.270Z,8
2023-05-15T10:14:24.846Z,10
2023-05-15T10:16:25.667Z,10
2023-05-15T10:18:25.478Z,10
2023-05-15T10:22:24.662Z,7
2023-05-15T10:24:25.005Z,7
2023-05-15T10:26:24.670Z,10
2023-05-15T10:28:24.987Z,10
2023-05-15T10:30:25.100Z,10
2023-05-15T10:32:25.062Z,7
2023-05-15T10:34:24.801Z,7
2023-05-15T10:36:25.250Z,7
2023-05-15T10:38:24.763Z,7
2023-05-15T10:40:24.797Z,7
2023-05-15T10:44:24.809Z,7
2023-05-15T10:46:25.406Z,7
2023-05-15T10:48:25.337Z,7
2023-05-15T10:50:24.974Z,10
2023-05-15T10:52:25.188Z,10
2023-05-15T10:54:24.830Z,10
2023-05-15T10:56:25.433Z,9
2023-05-15T10:58:24.675Z,9
2023-05-15T11:00:28.578Z,9
2023-05-15T11:02:24.851Z,7
2023-05-15T11:06:24.895Z,7
2023-05-15T11:08:24.661Z,9
2023-05-15T11:10:27.293Z,9
2023-05-15T11:12:24.799Z,9
2023-05-15T11:14:25.280Z,9
2023-05-15T11:16:25.840Z,9
2023-05-15T11:18:25.712Z,9
2023-05-15T11:20:25.508Z,9
2023-05-15T11:22:24.605Z,9
2023-05-15T11:24:25.139Z,9
2023-05-15T11:26:24.807Z,5
2023-05-15T11:28:25.344Z,5
2023-05-15T11:30:25.520Z,5
2023-05-15T11:32:25.514Z,10
2023-05-15T11:34:25.069Z,10
2023-05-15T11:36:24.713Z,10
2023-05-15T11:38:25.269Z,7
2023-05-15T11:40:25.269Z,7
2023-05-15T11:42:24.494Z,7
2023-05-15T11:44:24.940Z,7
2023-05-15T11:46:25.699Z,7
2023-05-15T11:48:25.455Z,7
2023-05-15T11:50:25.163Z,7
2023-05-15T11:52:24.424Z,7
2023-05-15T11:54:24.944Z,7
2023-05-15T11:56:25.292Z,9
2023-05-15T11:58:25.061Z,9
2023-05-15T12:00:30.509Z,9
2023-05-15T12:02:24.437Z,8
2023-05-15T12:04:26.365Z,8
2023-05-15T12:06:24.738Z,8
2023-05-15T12:08:25.250Z,7
2023-05-15T12:10:25.501Z,7
2023-05-15T12:12:24.684Z,7
2023-05-15T12:14:25.181Z,5
2023-05-15T12:16:24.912Z,5
2023-05-15T12:18:25.444Z,5
2023-05-15T12:20:25.288Z,8
2023-05-15T12:22:24.430Z,8
2023-05-15T12:24:28.125Z,8
2023-05-15T12:26:24.738Z,5
2023-05-15T12:28:25.494Z,5
2023-05-15T12:30:25.425Z,5
2023-05-15T12:32:24.801Z,4
2023-05-15T12:34:25.298Z,4
2023-05-15T12:36:25.021Z,4
2023-05-15T12:38:24.521Z,6
2023-05-15T12:40:25.320Z,6
2023-05-15T12:42:24.445Z,6
2023-05-15T12:44:25.060Z,7
2023-05-15T12:46:24.814Z,7
2023-05-15T12:48:25.434Z,7
2023-05-15T12:50:25.031Z,4
2023-05-15T12:52:25.284Z,4
2023-05-15T12:54:25.019Z,4
2023-05-15T12:56:25.513Z,4
2023-05-15T12:58:24.894Z,4
2023-05-15T13:00:31.869Z,4
2023-05-15T13:02:25.125Z,5
2023-05-15T13:04:24.526Z,5
2023-05-15T13:06:31.888Z,5
2023-05-15T13:08:24.600Z,7
2023-05-15T13:10:25.492Z,7
2023-05-15T13:12:24.825Z,7
2023-05-15T13:14:25.327Z,6
2023-05-15T13:16:25.065Z,6
2023-05-15T13:18:25.381Z,6
2023-05-15T13:20:25.356Z,6
2023-05-15T13:22:26.063Z,6
2023-05-15T13:24:25.573Z,6
2023-05-15T13:26:24.512Z,7
2023-05-15T13:28:25.160Z,7
2023-05-15T13:30:25.200Z,7
2023-05-15T13:32:25.190Z,4
2023-05-15T13:34:24.874Z,4
2023-05-15T13:36:25.362Z,4
2023-05-15T13:38:24.837Z,3
2023-05-15T13:40:25.834Z,3
2023-05-15T13:42:25.068Z,3
2023-05-15T13:44:24.503Z,6
2023-05-15T13:46:25.500Z,6
2023-05-15T13:48:24.830Z,6
2023-05-15T13:50:25.584Z,4
2023-05-15T13:52:24.515Z,4
2023-05-15T13:54:25.092Z,4
2023-05-15T13:56:24.885Z,4
2023-05-15T13:58:25.356Z,4
2023-05-15T14:00:33.833Z,4
2023-05-15T14:02:24.758Z,4
2023-05-15T14:06:25.009Z,4
2023-05-15T14:08:24.580Z,4
2023-05-15T14:10:25.651Z,4
2023-05-15T14:12:24.889Z,4
2023-05-15T14:14:25.475Z,3
2023-05-15T14:16:25.289Z,3
2023-05-15T14:18:24.903Z,3
2023-05-15T14:20:25.607Z,3
2023-05-15T14:22:25.072Z,3
2023-05-15T14:24:25.385Z,3
2023-05-15T14:26:25.006Z,4
2023-05-15T14:28:24.535Z,4
2023-05-15T14:30:25.341Z,4
2023-05-15T14:32:24.770Z,4
2023-05-15T14:34:25.164Z,4
2023-05-15T14:36:24.678Z,4
2023-05-15T14:38:25.085Z,4
2023-05-15T14:40:25.224Z,4
2023-05-15T14:42:25.210Z,4
2023-05-15T14:44:24.694Z,6
2023-05-15T14:46:25.573Z,6
2023-05-15T14:48:25.025Z,6
2023-05-15T14:50:25.886Z,4
2023-05-15T14:52:24.859Z,4
2023-05-15T14:54:25.301Z,4
2023-05-15T14:56:24.720Z,6
2023-05-15T14:58:25.198Z,6
2023-05-15T15:00:28.651Z,6
2023-05-15T15:02:24.646Z,3
2023-05-15T15:04:25.637Z,3
2023-05-15T15:06:24.871Z,3
2023-05-15T15:08:25.429Z,4
2023-05-15T15:10:25.384Z,4
2023-05-15T15:12:24.622Z,4
2023-05-15T15:14:25.177Z,6
2023-05-15T15:16:24.809Z,6
2023-05-15T15:18:25.250Z,6
2023-05-15T15:20:24.740Z,7
2023-05-15T15:22:25.001Z,7
2023-05-15T15:24:24.729Z,7
2023-05-15T15:26:25.272Z,7
2023-05-15T15:28:24.918Z,7
2023-05-15T15:30:25.695Z,7
2023-05-15T15:32:25.061Z,3
2023-05-15T15:34:28.261Z,3
2023-05-15T15:36:24.977Z,3
2023-05-15T15:38:25.413Z,3
2023-05-15T15:40:25.527Z,3
2023-05-15T15:42:27.571Z,3
2023-05-15T15:44:25.226Z,4
2023-05-15T15:46:25.057Z,4
2023-05-15T15:48:25.526Z,4
2023-05-15T15:50:25.359Z,3
2023-05-15T15:52:24.614Z,3
2023-05-15T15:54:25.244Z,3
2023-05-15T15:56:24.974Z,4
2023-05-15T15:58:25.422Z,4
2023-05-15T16:00:30.441Z,4
2023-05-15T16:02:24.686Z,3
2023-05-15T16:04:25.477Z,3
2023-05-15T16:06:24.743Z,3
2023-05-15T16:08:25.255Z,3
2023-05-15T16:10:35.701Z,3
2023-05-15T16:12:25.446Z,3
2023-05-15T16:14:24.755Z,1
2023-05-15T16:18:25.218Z,1
2023-05-15T16:20:25.170Z,3
2023-05-15T16:22:25.163Z,3
2023-05-15T16:24:24.902Z,3
2023-05-15T16:26:25.426Z,1
2023-05-15T16:28:24.888Z,1
2023-05-15T16:30:33.444Z,1
2023-05-15T16:34:26.924Z,3
2023-05-15T16:36:25.283Z,3
2023-05-15T16:38:24.978Z,1
2023-05-15T16:40:25.654Z,1
2023-05-15T16:42:25.053Z,1
2023-05-15T16:44:24.472Z,3
2023-05-15T16:46:25.342Z,3
2023-05-15T16:48:24.930Z,3
2023-05-15T16:50:25.433Z,1
2023-05-15T16:52:24.516Z,1
2023-05-15T16:54:25.247Z,1
2023-05-15T16:56:24.785Z,3
2023-05-15T16:58:25.312Z,3
2023-05-15T17:00:31.166Z,3
2023-05-15T17:02:25.369Z,4
2023-05-15T17:04:24.772Z,4
2023-05-15T17:06:25.149Z,4
2023-05-15T17:08:24.899Z,4
2023-05-15T17:10:25.647Z,4
2023-05-15T17:12:24.855Z,4
2023-05-15T17:14:25.485Z,3
2023-05-15T17:16:25.004Z,3
2023-05-15T17:18:24.672Z,3
2023-05-15T17:20:26.515Z,3
2023-05-15T17:22:24.543Z,3
2023-05-15T17:24:25.041Z,3
2023-05-15T17:28:24.950Z,3
2023-05-15T17:30:25.871Z,3
2023-05-15T17:32:25.801Z,1
2023-05-15T17:34:24.615Z,1
2023-05-15T17:36:25.240Z,1
2023-05-15T17:38:24.911Z,1
2023-05-15T17:40:24.656Z,1
2023-05-15T17:42:25.105Z,1
2023-05-15T17:44:24.611Z,3
2023-05-15T17:46:25.422Z,3
2023-05-15T17:48:24.820Z,3
2023-05-15T17:50:25.264Z,3
2023-05-15T17:52:24.898Z,3
2023-05-15T17:54:25.263Z,3
2023-05-15T17:56:24.872Z,1
2023-05-15T17:58:24.429Z,1
2023-05-15T18:00:27.993Z,1
2023-05-15T18:02:24.652Z,3
2023-05-15T18:04:25.653Z,3
2023-05-15T18:06:24.893Z,3
2023-05-15T18:08:25.243Z,1
2023-05-15T18:10:25.077Z,1
2023-05-15T18:14:25.104Z,1
2023-05-15T18:16:24.730Z,1
2023-05-15T18:18:25.435Z,1
2023-05-15T18:20:24.844Z,3
2023-05-15T18:22:25.357Z,3
2023-05-15T18:24:24.948Z,3
2023-05-15T18:26:25.316Z,3
2023-05-15T18:28:24.950Z,3
2023-05-15T18:30:25.617Z,3
2023-05-15T18:32:25.348Z,1
2023-05-15T18:34:24.877Z,1
2023-05-15T18:36:27.179Z,1
2023-05-15T18:38:24.802Z,3
2023-05-15T18:40:25.548Z,3
2023-05-15T18:42:25.059Z,3
2023-05-15T18:44:24.596Z,1
2023-05-15T18:46:25.163Z,1
2023-05-15T18:48:24.705Z,1
2023-05-15T18:50:25.318Z,1
2023-05-15T18:52:24.707Z,1
2023-05-15T18:54:25.103Z,1
2023-05-15T18:56:24.655Z,1
2023-05-15T18:58:25.234Z,1
2023-05-15T19:00:48.345Z,1
2023-05-15T19:02:26.267Z,0
2023-05-15T19:04:25.088Z,0
2023-05-15T19:06:24.655Z,0
2023-05-15T19:08:25.080Z,0
2023-05-15T19:10:25.206Z,0
2023-05-15T19:12:24.551Z,0
2023-05-15T19:14:25.053Z,0
2023-05-15T19:16:24.783Z,0
2023-05-15T19:18:25.359Z,0
2023-05-15T19:20:25.188Z,0
2023-05-15T19:22:25.255Z,0
2023-05-15T19:24:24.950Z,0
2023-05-15T19:26:24.549Z,0
2023-05-15T19:28:25.032Z,0
2023-05-15T19:30:24.896Z,0
2023-05-15T19:34:24.752Z,0
2023-05-15T19:36:25.258Z,0
2023-05-15T19:38:24.994Z,0
2023-05-15T19:40:25.032Z,0
2023-05-15T19:42:25.195Z,0
2023-05-15T19:44:25.009Z,0
2023-05-15T19:46:24.705Z,0
2023-05-15T19:48:25.206Z,0
2023-05-15T19:50:25.162Z,0
2023-05-15T19:52:25.354Z,0
2023-05-15T19:54:25.186Z,0
2023-05-15T19:56:24.565Z,0
2023-05-15T19:58:25.112Z,0
2023-05-15T20:00:28.676Z,0
2023-05-15T20:02:25.374Z,0
2023-05-15T20:04:24.906Z,0
2023-05-15T20:06:24.628Z,0
2023-05-15T20:08:25.245Z,0
2023-05-15T20:10:25.309Z,0
2023-05-15T20:12:27.414Z,0
2023-05-15T20:14:25.319Z,0
2023-05-15T20:18:25.349Z,0
2023-05-15T20:20:25.126Z,0
2023-05-15T20:22:25.422Z,0
2023-05-15T20:24:25.044Z,0
2023-05-15T20:26:24.524Z,0
2023-05-15T20:28:25.225Z,0
2023-05-15T20:30:25.041Z,0
2023-05-15T20:32:25.650Z,0
2023-05-15T20:34:24.808Z,0
2023-05-15T20:36:25.327Z,0
2023-05-15T20:38:24.804Z,0
2023-05-15T20:40:25.749Z,0
2023-05-15T20:42:25.140Z,0
2023-05-15T20:44:24.521Z,0
2023-05-15T20:46:26.963Z,0
2023-05-15T20:48:24.562Z,0
2023-05-15T20:50:25.401Z,0
2023-05-15T20:52:24.725Z,0
2023-05-15T20:54:25.372Z,0
2023-05-15T20:56:25.040Z,0
2023-05-15T20:58:24.696Z,0
2023-05-15T21:00:30.068Z,0
2023-05-15T21:02:24.806Z,0
2023-05-15T21:04:24.804Z,0
2023-05-15T21:06:24.850Z,0
2023-05-15T21:08:25.266Z,0
2023-05-15T21:10:25.284Z,0
2023-05-15T21:12:24.588Z,0
2023-05-15T21:14:25.235Z,0
2023-05-15T21:16:24.692Z,0
2023-05-15T21:18:25.166Z,0
2023-05-15T21:20:24.935Z,0
2023-05-15T21:22:25.205Z,0
2023-05-15T21:24:24.946Z,0
2023-05-15T21:26:25.309Z,0
2023-05-15T21:28:24.870Z,0
2023-05-15T21:30:25.770Z,0
2023-05-15T21:32:25.087Z,0
2023-05-15T21:34:25.444Z,0
2023-05-15T21:36:24.957Z,0
2023-05-15T21:38:24.759Z,0
2023-05-15T21:40:25.694Z,0
2023-05-15T21:42:24.855Z,0
2023-05-15T21:44:25.312Z,0
2023-05-15T21:46:25.218Z,0
2023-05-15T21:48:24.648Z,0
2023-05-15T21:50:25.540Z,0
2023-05-15T21:52:24.654Z,0
2023-05-15T21:54:25.185Z,0
2023-05-15T21:56:24.633Z,0
2023-05-15T21:58:25.179Z,0
2023-05-15T22:00:25.386Z,0
2023-05-15T22:02:24.717Z,0
2023-05-15T22:04:25.384Z,0
2023-05-15T22:06:24.708Z,0
2023-05-15T22:08:25.384Z,0
2023-05-15T22:10:25.432Z,0
2023-05-15T22:12:25.430Z,0
2023-05-15T22:14:25.125Z,0
2023-05-15T22:16:24.877Z,0
2023-05-15T22:18:25.506Z,0
2023-05-15T22:22:24.603Z,0
2023-05-15T22:24:25.042Z,0
2023-05-15T22:26:24.493Z,0
2023-05-15T22:28:25.140Z,0
2023-05-15T22:30:24.750Z,0
2023-05-15T22:32:25.375Z,0
2023-05-15T22:34:24.639Z,0
2023-05-15T22:36:25.174Z,0
2023-05-15T22:38:24.855Z,0
2023-05-15T22:40:25.859Z,0
2023-05-15T22:42:25.081Z,0
2023-05-15T22:44:24.753Z,0
2023-05-15T22:46:25.273Z,0
2023-05-15T22:48:24.769Z,0
2023-05-15T22:50:25.524Z,0
2023-05-15T22:52:25.782Z,0
2023-05-15T22:54:24.444Z,0
2023-05-15T22:56:25.036Z,0
2023-05-15T22:58:24.665Z,0
2023-05-15T23:00:28.087Z,0
2023-05-15T23:02:24.958Z,0
2023-05-15T23:04:24.984Z,0
2023-05-15T23:06:25.170Z,0
2023-05-15T23:08:24.929Z,0
2023-05-15T23:10:25.891Z,0
2023-05-15T23:12:25.275Z,0
2023-05-15T23:14:24.787Z,0
2023-05-15T23:16:25.883Z,0
2023-05-15T23:18:25.111Z,0
2023-05-15T23:20:26.021Z,0
2023-05-15T23:22:25.162Z,0
2023-05-15T23:24:24.941Z,0
2023-05-15T23:26:25.489Z,0
2023-05-15T23:28:24.804Z,0
2023-05-15T23:30:25.797Z,0
2023-05-15T23:32:25.009Z,0
2023-05-15T23:34:24.420Z,0
2023-05-15T23:36:25.015Z,0
2023-05-15T23:38:24.606Z,0
2023-05-15T23:40:25.461Z,0
2023-05-15T23:42:24.685Z,0
2023-05-15T23:44:25.288Z,0
2023-05-15T23:46:25.023Z,0
2023-05-15T23:48:24.671Z,0
2023-05-15T23:50:25.198Z,0
2023-05-15T23:52:24.657Z,0
2023-05-15T23:54:25.162Z,0
2023-05-15T23:56:24.755Z,0
2023-05-15T23:58:24.517Z,0
